Time;durP1;ratioP1;P1;durP2;ratioP2;P2;SDS_P1;SDS_P2;PMS_P1;PMS_P2;Temp;Humidity;BMP_temperature;BMP_pressure;BME280_temperature;BME280_humidity;BME280_pressure;Samples;Min_cycle;Max_cycle;Signal;HPM_P1;HPM_P2
2023/11/21 00:02:27;;;;;;;12.57;5.70;;;;;;;;;;5105008;28;20096;-52
2023/11/21 00:04:53;;;;;;;10.77;5.10;;;;;;;;;;5104806;28;20024;-48
2023/11/21 00:07:21;;;;;;;9.95;4.80;;;;;;;;;;5104570;28;20039;-47
2023/11/21 00:09:47;;;;;;;11.18;4.93;;;;;;;;;;5104655;28;20069;-53
2023/11/21 00:12:14;;;;;;;11.75;4.68;;;;;;;;;;5104487;28;20027;-49
2023/11/21 00:14:41;;;;;;;11.13;4.72;;;;;;;;;;5104997;28;20292;-48
2023/11/21 00:17:07;;;;;;;11.32;5.13;;;;;;;;;;5104575;28;20036;-50
2023/11/21 00:19:34;;;;;;;15.15;4.80;;;;;;;;;;5104355;28;20020;-51
2023/11/21 00:22:01;;;;;;;16.13;5.30;;;;;;;;;;5104904;28;20028;-53
2023/11/21 00:24:27;;;;;;;10.65;4.88;;;;;;;;;;5104784;28;20032;-51
2023/11/21 00:26:54;;;;;;;10.82;5.05;;;;;;;;;;5104078;28;20024;-53
2023/11/21 00:29:22;;;;;;;11.43;4.95;;;;;;;;;;5095373;28;20029;-50
2023/11/21 00:31:48;;;;;;;15.75;5.30;;;;;;;;;;5090168;28;20024;-47
2023/11/21 00:34:15;;;;;;;12.80;5.20;;;;;;;;;;5083772;28;20020;-55
2023/11/21 00:36:42;;;;;;;14.52;5.00;;;;;;;;;;5083964;28;20032;-65
2023/11/21 00:39:08;;;;;;;13.93;5.00;;;;;;;;;;5084045;28;20296;-65
2023/11/21 00:41:36;;;;;;;14.10;5.57;;;;;;;;;;5083801;28;20372;-54
2023/11/21 00:44:03;;;;;;;12.35;4.40;;;;;;;;;;5083547;28;20045;-51
2023/11/21 00:46:29;;;;;;;14.63;5.53;;;;;;;;;;5083696;28;20411;-64
2023/11/21 00:48:57;;;;;;;13.73;4.50;;;;;;;;;;5083407;28;20020;-50
2023/11/21 00:51:24;;;;;;;15.35;4.72;;;;;;;;;;5083764;28;20036;-62
2023/11/21 00:53:51;;;;;;;14.40;4.65;;;;;;;;;;5083853;28;20023;-61
2023/11/21 00:56:17;;;;;;;10.80;4.10;;;;;;;;;;5083683;28;20066;-59
2023/11/21 00:58:46;;;;;;;10.80;4.53;;;;;;;;;;5083781;28;20041;-63
2023/11/21 01:01:13;;;;;;;13.98;5.30;;;;;;;;;;5083780;28;20032;-67
2023/11/21 01:03:39;;;;;;;12.25;5.93;;;;;;;;;;5082381;28;20360;-66
2023/11/21 01:06:07;;;;;;;17.75;7.03;;;;;;;;;;5083874;28;20033;-67
2023/11/21 01:08:34;;;;;;;19.33;8.18;;;;;;;;;;5083575;28;20050;-61
2023/11/21 01:11:01;;;;;;;25.52;9.77;;;;;;;;;;5082176;28;20020;-50
2023/11/21 01:13:28;;;;;;;18.15;7.72;;;;;;;;;;5083193;28;20092;-51
2023/11/21 01:15:54;;;;;;;17.98;7.10;;;;;;;;;;5083258;28;20020;-54
2023/11/21 01:18:25;;;;;;;17.90;7.53;;;;;;;;;;5083363;28;20024;-56
2023/11/21 01:20:53;;;;;;;14.38;5.53;;;;;;;;;;5084196;28;20036;-51
2023/11/21 01:23:20;;;;;;;13.43;5.68;;;;;;;;;;5087312;28;20242;-51
2023/11/21 01:25:46;;;;;;;16.35;6.03;;;;;;;;;;5087566;28;20296;-60
2023/11/21 01:28:13;;;;;;;13.25;5.88;;;;;;;;;;5102548;28;20228;-53
2023/11/21 01:30:40;;;;;;;15.30;6.22;;;;;;;;;;5107765;28;20315;-49
2023/11/21 01:33:06;;;;;;;14.88;5.72;;;;;;;;;;5107402;28;20088;-66
2023/11/21 01:35:34;;;;;;;14.13;5.45;;;;;;;;;;5107911;28;20027;-57
2023/11/21 01:38:00;;;;;;;13.15;5.57;;;;;;;;;;5107427;28;20311;-54
2023/11/21 01:40:28;;;;;;;11.45;5.05;;;;;;;;;;5106042;28;20087;-64
2023/11/21 01:42:55;;;;;;;10.98;4.80;;;;;;;;;;5107270;28;20036;-59
2023/11/21 01:45:22;;;;;;;10.35;5.28;;;;;;;;;;5107117;28;20058;-55
2023/11/21 01:47:49;;;;;;;12.68;5.57;;;;;;;;;;5107025;28;20024;-54
2023/11/21 01:50:17;;;;;;;12.10;5.28;;;;;;;;;;5107547;28;20312;-61
2023/11/21 01:52:45;;;;;;;12.05;5.05;;;;;;;;;;5107171;28;20321;-56
2023/11/21 01:55:12;;;;;;;14.48;4.97;;;;;;;;;;5107242;28;20020;-54
2023/11/21 01:57:39;;;;;;;9.68;4.93;;;;;;;;;;5107201;28;20032;-48
2023/11/21 02:00:15;;;;;;;12.07;4.82;;;;;;;;;;5106986;28;20365;-52
2023/11/21 02:02:48;;;;;;;9.00;4.18;;;;;;;;;;5106910;28;20020;-64
2023/11/21 02:05:18;;;;;;;10.23;3.88;;;;;;;;;;5107368;28;20059;-54
2023/11/21 02:07:50;;;;;;;11.35;4.40;;;;;;;;;;5106749;28;20023;-56
2023/11/21 02:10:16;;;;;;;;;;;;;;;;;;5107554;28;20024;-57
2023/11/21 02:12:44;;;;;;;9.73;3.67;;;;;;;;;;5106713;28;19915;-45
2023/11/21 02:15:19;;;;;;;12.48;4.57;;;;;;;;;;5106694;28;20083;-62
2023/11/21 02:17:53;;;;;;;11.52;3.88;;;;;;;;;;5106860;28;20036;-59
2023/11/21 02:20:20;;;;;;;10.25;3.95;;;;;;;;;;5106935;28;20099;-54
2023/11/21 02:23:01;;;;;;;10.77;4.00;;;;;;;;;;5106319;28;20074;-66
2023/11/21 02:25:31;;;;;;;10.13;4.03;;;;;;;;;;5106854;28;20204;-64
2023/11/21 02:27:59;;;;;;;8.73;3.72;;;;;;;;;;5105801;28;20042;-48
2023/11/21 02:30:27;;;;;;;12.80;4.20;;;;;;;;;;5106697;28;20057;-48
2023/11/21 02:32:54;;;;;;;9.77;4.05;;;;;;;;;;5105987;28;20065;-45
2023/11/21 02:35:21;;;;;;;9.40;3.95;;;;;;;;;;5106476;28;20039;-47
2023/11/21 02:37:48;;;;;;;7.25;3.92;;;;;;;;;;5097534;28;20342;-51
2023/11/21 02:40:17;;;;;;;8.40;4.00;;;;;;;;;;5100081;28;20300;-44
2023/11/21 02:42:47;;;;;;;7.93;3.90;;;;;;;;;;5090570;28;20316;-47
2023/11/21 02:45:17;;;;;;;10.35;4.55;;;;;;;;;;5088590;28;20051;-41
2023/11/21 02:47:46;;;;;;;8.00;4.25;;;;;;;;;;5086074;28;20194;-43
2023/11/21 02:50:14;;;;;;;8.32;3.72;;;;;;;;;;5095262;28;20316;-45
2023/11/21 02:52:41;;;;;;;9.55;3.88;;;;;;;;;;5099410;28;20069;-39
2023/11/21 02:55:07;;;;;;;8.60;3.95;;;;;;;;;;5097686;28;20026;-45
2023/11/21 02:57:34;;;;;;;6.05;3.50;;;;;;;;;;5099261;28;20500;-45
2023/11/21 03:00:01;;;;;;;9.15;3.92;;;;;;;;;;5096150;28;20032;-52
2023/11/21 03:02:27;;;;;;;8.80;3.90;;;;;;;;;;5089765;28;20127;-43
2023/11/21 03:04:54;;;;;;;10.15;4.20;;;;;;;;;;5090421;28;20062;-41
2023/11/21 03:07:21;;;;;;;7.65;3.95;;;;;;;;;;5091919;28;20321;-44
2023/11/21 03:09:48;;;;;;;8.20;3.65;;;;;;;;;;5085649;28;20013;-43
2023/11/21 03:12:16;;;;;;;9.35;3.90;;;;;;;;;;5086612;28;20043;-40
2023/11/21 03:14:42;;;;;;;7.43;3.60;;;;;;;;;;5092429;28;20035;-42
2023/11/21 03:17:09;;;;;;;7.65;3.70;;;;;;;;;;5089881;28;20027;-41
2023/11/21 03:19:35;;;;;;;8.38;3.80;;;;;;;;;;5090921;28;20108;-44
2023/11/21 03:22:03;;;;;;;6.95;3.90;;;;;;;;;;5090434;28;20059;-40
2023/11/21 03:24:29;;;;;;;8.32;3.90;;;;;;;;;;5088088;28;20028;-48
2023/11/21 03:26:56;;;;;;;5.97;3.22;;;;;;;;;;5083743;28;20321;-44
2023/11/21 03:29:23;;;;;;;6.82;3.60;;;;;;;;;;5082943;28;20059;-47
2023/11/21 03:31:49;;;;;;;9.52;3.67;;;;;;;;;;5083727;28;20020;-46
2023/11/21 03:34:26;;;;;;;9.52;3.92;;;;;;;;;;5082748;28;20028;-50
2023/11/21 03:36:53;;;;;;;9.23;3.50;;;;;;;;;;5083392;28;20093;-51
2023/11/21 03:39:22;;;;;;;6.22;3.40;;;;;;;;;;5084773;28;20034;-46
2023/11/21 03:41:49;;;;;;;8.40;3.53;;;;;;;;;;5084763;28;20043;-50
2023/11/21 03:44:17;;;;;;;7.25;3.38;;;;;;;;;;5083963;28;20150;-46
2023/11/21 03:46:44;;;;;;;6.65;3.50;;;;;;;;;;5084287;28;20105;-49
2023/11/21 03:49:11;;;;;;;7.40;2.90;;;;;;;;;;5084702;28;20233;-43
2023/11/21 03:51:38;;;;;;;6.30;2.80;;;;;;;;;;5084405;28;20055;-47
2023/11/21 03:54:05;;;;;;;7.32;3.30;;;;;;;;;;5084511;28;20028;-45
2023/11/21 03:56:32;;;;;;;6.53;3.35;;;;;;;;;;5084709;28;20093;-43
2023/11/21 03:58:58;;;;;;;6.60;3.33;;;;;;;;;;5084573;28;20130;-45
2023/11/21 04:01:25;;;;;;;8.90;3.50;;;;;;;;;;5083213;28;20086;-46
2023/11/21 04:03:53;;;;;;;6.55;3.17;;;;;;;;;;5084500;28;20020;-47
2023/11/21 04:06:20;;;;;;;6.00;3.17;;;;;;;;;;5084208;28;20028;-50
2023/11/21 04:08:47;;;;;;;7.07;3.70;;;;;;;;;;5084270;28;20036;-51
2023/11/21 04:11:13;;;;;;;8.50;3.55;;;;;;;;;;5084106;28;20031;-52
2023/11/21 04:13:40;;;;;;;5.53;2.92;;;;;;;;;;5092945;28;20031;-48
2023/11/21 04:16:08;;;;;;;5.78;3.20;;;;;;;;;;5104524;28;20086;-47
2023/11/21 04:18:35;;;;;;;5.95;2.72;;;;;;;;;;5104273;28;20063;-47
2023/11/21 04:21:02;;;;;;;7.32;3.20;;;;;;;;;;5104443;28;20116;-51
2023/11/21 04:23:30;;;;;;;7.85;3.08;;;;;;;;;;5104270;28;20094;-47
2023/11/21 04:25:57;;;;;;;6.05;2.83;;;;;;;;;;5104179;28;20343;-47
2023/11/21 04:28:27;;;;;;;4.82;2.78;;;;;;;;;;5104204;28;20036;-49
2023/11/21 04:30:53;;;;;;;7.72;3.05;;;;;;;;;;5104204;28;20036;-50
2023/11/21 04:33:21;;;;;;;4.95;2.67;;;;;;;;;;5104052;28;20016;-51
2023/11/21 04:35:48;;;;;;;6.03;2.80;;;;;;;;;;5104622;28;20368;-54
2023/11/21 04:38:14;;;;;;;6.78;3.00;;;;;;;;;;5104130;28;20040;-52
2023/11/21 04:40:41;;;;;;;11.60;2.85;;;;;;;;;;5104464;28;20032;-47
2023/11/21 04:43:08;;;;;;;4.90;2.83;;;;;;;;;;5104031;28;20339;-46
2023/11/21 04:45:34;;;;;;;7.00;2.97;;;;;;;;;;5104471;28;20031;-52
2023/11/21 04:48:01;;;;;;;8.93;3.20;;;;;;;;;;5103839;28;20079;-51
2023/11/21 04:50:27;;;;;;;7.00;2.70;;;;;;;;;;5104513;28;20077;-51
2023/11/21 04:52:54;;;;;;;6.00;2.75;;;;;;;;;;5104106;28;20036;-47
2023/11/21 04:55:21;;;;;;;7.70;2.80;;;;;;;;;;5104270;28;20315;-45
2023/11/21 04:57:47;;;;;;;5.88;2.90;;;;;;;;;;5108148;28;20089;-48
2023/11/21 05:00:15;;;;;;;6.82;3.05;;;;;;;;;;5101960;28;20036;-43
2023/11/21 05:02:43;;;;;;;5.07;3.20;;;;;;;;;;5089011;28;20052;-48
2023/11/21 05:05:10;;;;;;;6.50;3.38;;;;;;;;;;5088107;28;20102;-48
2023/11/21 05:07:37;;;;;;;8.85;3.00;;;;;;;;;;5087620;28;20032;-48
2023/11/21 05:10:14;;;;;;;9.95;3.20;;;;;;;;;;5087835;28;20023;-48
2023/11/21 05:12:42;;;;;;;7.20;3.10;;;;;;;;;;5087552;28;20035;-45
2023/11/21 05:15:12;;;;;;;7.55;3.05;;;;;;;;;;5087941;28;20044;-50
2023/11/21 05:17:43;;;;;;;7.07;2.95;;;;;;;;;;5087423;28;20032;-48
2023/11/21 05:20:17;;;;;;;5.40;2.88;;;;;;;;;;5087772;28;20025;-44
2023/11/21 05:22:44;;;;;;;8.00;3.00;;;;;;;;;;5087265;28;20036;-42
2023/11/21 05:25:12;;;;;;;7.97;3.03;;;;;;;;;;5087835;28;20024;-47
2023/11/21 05:27:39;;;;;;;6.10;3.00;;;;;;;;;;5087132;28;20241;-49
2023/11/21 05:30:06;;;;;;;6.97;2.75;;;;;;;;;;5105423;28;20023;-46
2023/11/21 05:32:33;;;;;;;8.23;2.78;;;;;;;;;;5107667;28;20062;-43
2023/11/21 05:35:01;;;;;;;4.70;2.90;;;;;;;;;;5107814;28;20028;-46
2023/11/21 05:37:27;;;;;;;6.07;2.83;;;;;;;;;;5107270;28;20283;-52
2023/11/21 05:39:57;;;;;;;8.50;3.15;;;;;;;;;;5107670;28;20020;-49
2023/11/21 05:42:24;;;;;;;8.55;2.55;;;;;;;;;;5107363;28;20044;-45
2023/11/21 05:44:50;;;;;;;6.63;3.15;;;;;;;;;;5107224;28;20044;-51
2023/11/21 05:47:18;;;;;;;5.50;2.65;;;;;;;;;;5107186;28;20044;-41
2023/11/21 05:49:45;;;;;;;5.60;2.67;;;;;;;;;;5107374;28;20028;-50
2023/11/21 05:52:11;;;;;;;8.93;2.95;;;;;;;;;;5106991;28;20035;-52
2023/11/21 05:54:38;;;;;;;5.68;2.72;;;;;;;;;;5107564;28;20019;-44
2023/11/21 05:57:05;;;;;;;6.72;2.65;;;;;;;;;;5107025;28;20038;-42
2023/11/21 05:59:31;;;;;;;4.22;2.35;;;;;;;;;;5107264;28;20242;-51
2023/11/21 06:01:58;;;;;;;5.75;2.88;;;;;;;;;;5107150;28;20030;-43
2023/11/21 06:04:25;;;;;;;7.32;2.58;;;;;;;;;;5107048;28;20118;-41
2023/11/21 06:06:54;;;;;;;8.55;2.75;;;;;;;;;;5106161;28;20032;-50
2023/11/21 06:09:21;;;;;;;6.93;2.88;;;;;;;;;;5106992;28;20020;-46
2023/11/21 06:11:48;;;;;;;5.88;3.10;;;;;;;;;;5106721;28;20020;-47
2023/11/21 06:14:17;;;;;;;6.70;2.67;;;;;;;;;;5106671;28;20024;-49
2023/11/21 06:16:45;;;;;;;6.43;3.20;;;;;;;;;;5106800;28;20020;-47
2023/11/21 06:19:12;;;;;;;6.07;2.95;;;;;;;;;;5107103;28;20024;-43
2023/11/21 06:21:38;;;;;;;7.38;3.15;;;;;;;;;;5106703;28;20028;-48
2023/11/21 06:24:07;;;;;;;6.40;2.75;;;;;;;;;;5106824;28;20159;-46
2023/11/21 06:26:34;;;;;;;5.85;3.03;;;;;;;;;;5106776;28;20050;-50
2023/11/21 06:29:02;;;;;;;4.63;2.88;;;;;;;;;;5106828;28;20032;-50
2023/11/21 06:31:30;;;;;;;6.72;2.70;;;;;;;;;;5106321;28;20024;-51
2023/11/21 06:33:57;;;;;;;7.38;2.80;;;;;;;;;;5106316;28;20204;-50
2023/11/21 06:36:24;;;;;;;5.18;2.90;;;;;;;;;;5106176;28;20036;-49
2023/11/21 06:38:50;;;;;;;6.78;3.10;;;;;;;;;;5106647;28;20015;-51
2023/11/21 06:41:17;;;;;;;6.28;2.85;;;;;;;;;;5106238;28;20039;-52
2023/11/21 06:43:46;;;;;;;7.07;3.03;;;;;;;;;;5105800;28;20111;-48
2023/11/21 06:46:16;;;;;;;6.53;2.90;;;;;;;;;;5106680;28;20058;-48
2023/11/21 06:48:46;;;;;;;11.27;3.30;;;;;;;;;;5105973;28;20020;-50
2023/11/21 06:51:13;;;;;;;7.18;2.90;;;;;;;;;;5106179;28;20336;-49
2023/11/21 06:53:39;;;;;;;5.75;2.85;;;;;;;;;;5106103;28;20016;-47
2023/11/21 06:56:15;;;;;;;5.88;2.60;;;;;;;;;;5106135;28;20032;-45
2023/11/21 06:58:42;;;;;;;5.55;2.90;;;;;;;;;;5105964;28;20039;-45
2023/11/21 07:01:09;;;;;;;8.43;2.90;;;;;;;;;;5106062;28;20096;-48
2023/11/21 07:03:37;;;;;;;4.63;2.88;;;;;;;;;;5105589;28;20020;-47
2023/11/21 07:06:04;;;;;;;7.75;3.10;;;;;;;;;;5105884;28;20043;-42
2023/11/21 07:08:30;;;;;;;8.40;2.67;;;;;;;;;;5105689;28;20035;-45
2023/11/21 07:14:07;;;;;;;6.80;2.85;;;;;;;;;;5105922;28;20129;-43
2023/11/21 07:16:40;;;;;;;7.53;2.70;;;;;;;;;;5105518;28;20036;-42
2023/11/21 07:19:08;;;;;;;6.20;2.72;;;;;;;;;;5104996;28;20035;-44
2023/11/21 07:21:35;;;;;;;5.65;2.80;;;;;;;;;;5105185;28;20050;-45
2023/11/21 07:24:02;;;;;;;6.93;2.92;;;;;;;;;;5105422;28;20024;-42
2023/11/21 07:26:29;;;;;;;5.38;2.97;;;;;;;;;;5105621;28;20095;-42
2023/11/21 07:28:56;;;;;;;9.25;3.25;;;;;;;;;;5105124;28;20024;-47
2023/11/21 07:31:24;;;;;;;8.18;3.00;;;;;;;;;;5105425;28;20017;-41
2023/11/21 07:33:51;;;;;;;5.85;2.90;;;;;;;;;;5105343;28;20094;-43
2023/11/21 07:36:21;;;;;;;7.72;3.30;;;;;;;;;;5105292;28;20078;-45
2023/11/21 07:38:48;;;;;;;7.55;2.95;;;;;;;;;;5105001;28;20058;-47
2023/11/21 07:41:17;;;;;;;6.82;2.92;;;;;;;;;;5105005;28;20035;-44
2023/11/21 07:43:44;;;;;;;11.23;3.25;;;;;;;;;;5104948;28;20269;-45
2023/11/21 07:46:15;;;;;;;5.53;2.85;;;;;;;;;;5105146;28;20208;-48
2023/11/21 07:48:42;;;;;;;6.38;2.95;;;;;;;;;;5104833;28;20024;-48
2023/11/21 07:51:09;;;;;;;6.78;2.67;;;;;;;;;;5105033;28;20044;-43
2023/11/21 07:53:36;;;;;;;7.72;2.97;;;;;;;;;;5104935;28;20075;-49
2023/11/21 07:56:07;;;;;;;7.88;2.80;;;;;;;;;;5105050;28;20043;-42
2023/11/21 07:58:34;;;;;;;6.68;2.75;;;;;;;;;;5104609;28;20027;-45
2023/11/21 08:01:01;;;;;;;5.93;2.58;;;;;;;;;;5104733;28;20357;-41
2023/11/21 08:03:30;;;;;;;8.13;3.05;;;;;;;;;;5104670;28;20097;-45
2023/11/21 08:05:59;;;;;;;6.32;2.53;;;;;;;;;;5104464;28;20136;-41
2023/11/21 08:08:27;;;;;;;6.72;3.25;;;;;;;;;;5104649;28;20019;-42
2023/11/21 08:10:57;;;;;;;6.75;2.97;;;;;;;;;;5104555;28;20031;-44
2023/11/21 08:13:27;;;;;;;6.90;2.70;;;;;;;;;;5104768;28;20078;-42
2023/11/21 08:16:01;;;;;;;8.18;2.85;;;;;;;;;;5104708;28;20032;-43
2023/11/21 08:18:28;;;;;;;6.97;2.90;;;;;;;;;;5104441;28;20069;-42
2023/11/21 08:20:58;;;;;;;7.43;2.80;;;;;;;;;;5104599;28;20097;-53
2023/11/21 08:23:28;;;;;;;6.00;2.97;;;;;;;;;;5104842;28;20316;-44
2023/11/21 08:25:55;;;;;;;8.85;2.92;;;;;;;;;;5092872;28;20052;-42
2023/11/21 08:28:24;;;;;;;7.82;2.60;;;;;;;;;;5098252;28;20202;-46
2023/11/21 08:30:51;;;;;;;6.35;2.83;;;;;;;;;;5084467;28;20087;-47
2023/11/21 08:33:17;;;;;;;7.25;2.90;;;;;;;;;;5083923;28;20023;-45
2023/11/21 08:35:45;;;;;;;5.82;3.10;;;;;;;;;;5084438;28;20206;-45
2023/11/21 08:38:12;;;;;;;5.55;2.85;;;;;;;;;;5083974;28;20253;-40
2023/11/21 08:40:39;;;;;;;7.15;2.70;;;;;;;;;;5084247;28;20089;-41
2023/11/21 08:43:06;;;;;;;5.50;3.00;;;;;;;;;;5083948;28;20032;-45
2023/11/21 08:45:34;;;;;;;5.93;2.78;;;;;;;;;;5084140;28;20039;-41
2023/11/21 08:48:01;;;;;;;7.88;2.97;;;;;;;;;;5083638;28;20061;-41
2023/11/21 08:50:28;;;;;;;6.85;2.90;;;;;;;;;;5084462;28;20031;-45
2023/11/21 08:52:55;;;;;;;7.38;3.35;;;;;;;;;;5083780;28;20031;-43
2023/11/21 08:55:22;;;;;;;6.03;2.85;;;;;;;;;;5084146;28;20024;-42
2023/11/21 08:57:49;;;;;;;7.20;2.88;;;;;;;;;;5083973;28;20251;-44
2023/11/21 09:00:16;;;;;;;7.38;2.92;;;;;;;;;;5084146;28;20032;-42
2023/11/21 09:02:44;;;;;;;6.65;3.08;;;;;;;;;;5083760;28;20039;-41
2023/11/21 09:05:14;;;;;;;5.85;2.85;;;;;;;;;;5084032;28;20216;-41
2023/11/21 09:07:41;;;;;;;5.97;2.70;;;;;;;;;;5083892;28;20021;-49
2023/11/21 09:10:09;;;;;;;5.00;3.15;;;;;;;;;;5083900;28;20017;-49
2023/11/21 09:12:37;;;;;;;8.68;3.50;;;;;;;;;;5084033;28;20028;-43
2023/11/21 09:15:07;;;;;;;7.53;2.88;;;;;;;;;;5084779;28;20024;-47
2023/11/21 09:17:34;;;;;;;10.05;3.38;;;;;;;;;;5083627;28;20051;-43
2023/11/21 09:20:03;;;;;;;9.18;3.15;;;;;;;;;;5083942;28;20020;-43
2023/11/21 09:22:31;;;;;;;5.47;2.72;;;;;;;;;;5083981;28;20025;-44
2023/11/21 09:24:58;;;;;;;8.98;3.40;;;;;;;;;;5083837;28;20231;-41
2023/11/21 09:27:25;;;;;;;8.32;3.22;;;;;;;;;;5083570;28;20062;-41
2023/11/21 09:29:53;;;;;;;6.50;3.20;;;;;;;;;;5083747;28;20017;-44
2023/11/21 09:32:21;;;;;;;6.53;2.97;;;;;;;;;;5083779;28;20017;-44
2023/11/21 09:34:50;;;;;;;6.68;3.08;;;;;;;;;;5083899;28;20051;-45
2023/11/21 09:37:17;;;;;;;6.22;3.05;;;;;;;;;;5083261;28;20029;-43
2023/11/21 09:39:44;;;;;;;8.82;3.67;;;;;;;;;;5083843;28;20020;-42
2023/11/21 09:42:16;;;;;;;6.60;3.38;;;;;;;;;;5084732;28;20220;-44
2023/11/21 09:44:46;;;;;;;8.82;3.17;;;;;;;;;;5086963;28;20048;-43
2023/11/21 09:47:15;;;;;;;6.00;2.85;;;;;;;;;;5086962;28;20044;-44
2023/11/21 09:49:47;;;;;;;7.47;3.50;;;;;;;;;;5087298;28;20027;-42
2023/11/21 09:52:19;;;;;;;9.77;3.20;;;;;;;;;;5086760;28;20028;-43
2023/11/21 09:54:47;;;;;;;9.45;3.67;;;;;;;;;;5087272;28;20346;-47
2023/11/21 09:57:16;;;;;;;7.82;3.55;;;;;;;;;;5086606;28;20032;-43
2023/11/21 09:59:43;;;;;;;6.55;3.25;;;;;;;;;;5087160;28;20078;-45
2023/11/21 10:02:13;;;;;;;8.30;3.38;;;;;;;;;;5086876;28;20067;-42
2023/11/21 10:04:40;;;;;;;12.00;3.70;;;;;;;;;;5086905;28;20042;-41
2023/11/21 10:07:09;;;;;;;12.88;3.80;;;;;;;;;;5086902;28;20078;-45
2023/11/21 10:09:37;;;;;;;8.23;3.25;;;;;;;;;;5087154;28;20025;-41
2023/11/21 10:12:08;;;;;;;6.65;3.45;;;;;;;;;;5086750;28;20029;-41
2023/11/21 10:14:38;;;;;;;6.78;3.47;;;;;;;;;;5086770;28;20200;-50
2023/11/21 10:17:08;;;;;;;7.57;3.85;;;;;;;;;;5086518;28;20021;-41
2023/11/21 10:19:36;;;;;;;8.60;3.38;;;;;;;;;;5086510;28;20028;-41
2023/11/21 10:22:03;;;;;;;7.03;3.42;;;;;;;;;;5099567;28;20315;-43
2023/11/21 10:24:30;;;;;;;7.55;3.33;;;;;;;;;;5106810;28;20061;-44
2023/11/21 10:27:13;;;;;;;6.75;4.00;;;;;;;;;;5106592;28;20039;-44
2023/11/21 10:29:42;;;;;;;10.20;3.50;;;;;;;;;;5106631;28;20020;-51
2023/11/21 10:32:09;;;;;;;8.38;3.20;;;;;;;;;;5106728;28;20027;-41
2023/11/21 10:34:36;;;;;;;7.75;3.22;;;;;;;;;;5107038;28;20203;-43
2023/11/21 10:37:12;;;;;;;7.10;3.40;;;;;;;;;;5106627;28;20091;-51
2023/11/21 10:39:39;;;;;;;5.07;3.08;;;;;;;;;;5106690;28;20095;-42
2023/11/21 10:42:10;;;;;;;10.38;3.67;;;;;;;;;;5106313;28;20022;-42
2023/11/21 10:44:37;;;;;;;9.52;3.40;;;;;;;;;;5106180;28;20048;-44
2023/11/21 10:47:05;;;;;;;7.97;3.55;;;;;;;;;;5106221;28;20035;-45
2023/11/21 10:49:31;;;;;;;5.60;3.53;;;;;;;;;;5106251;28;20020;-45
2023/11/21 10:51:58;;;;;;;6.22;3.65;;;;;;;;;;5106306;28;20032;-50
2023/11/21 10:54:25;;;;;;;11.30;4.07;;;;;;;;;;5106067;28;20208;-41
2023/11/21 10:56:59;;;;;;;7.57;3.97;;;;;;;;;;5106056;28;20024;-47
2023/11/21 10:59:32;;;;;;;12.43;4.05;;;;;;;;;;5106056;28;20089;-43
2023/11/21 11:02:00;;;;;;;8.95;3.75;;;;;;;;;;5104699;28;20024;-43
2023/11/21 11:04:28;;;;;;;8.55;4.25;;;;;;;;;;5095912;28;20021;-44
2023/11/21 11:07:00;;;;;;;11.85;4.25;;;;;;;;;;5092313;28;20036;-40
2023/11/21 11:09:27;;;;;;;13.80;4.88;;;;;;;;;;5085690;28;20024;-44
2023/11/21 11:11:54;;;;;;;12.32;4.80;;;;;;;;;;5097573;28;20024;-42
2023/11/21 11:14:24;;;;;;;10.45;4.90;;;;;;;;;;5105735;28;20320;-43
2023/11/21 11:16:57;;;;;;;14.15;5.13;;;;;;;;;;5105473;28;20254;-52
2023/11/21 11:19:24;;;;;;;12.93;5.85;;;;;;;;;;5105590;28;20200;-50
2023/11/21 11:21:53;;;;;;;11.98;5.78;;;;;;;;;;5105492;28;20377;-47
2023/11/21 11:24:39;;;;;;;11.35;6.80;;;;;;;;;;5105923;28;20079;-51
2023/11/21 11:27:12;;;;;;;17.13;8.43;;;;;;;;;;5105258;28;20063;-43
2023/11/21 11:29:44;;;;;;;15.77;7.70;;;;;;;;;;5105483;28;20024;-41
2023/11/21 11:32:13;;;;;;;18.92;7.72;;;;;;;;;;5097989;28;20332;-44
2023/11/21 11:34:46;;;;;;;16.42;9.50;;;;;;;;;;5085276;28;20021;-46
2023/11/21 11:37:13;;;;;;;17.50;7.88;;;;;;;;;;5083738;28;20032;-49
2023/11/21 11:39:43;;;;;;;17.38;8.13;;;;;;;;;;5084784;28;20024;-52
2023/11/21 11:42:16;;;;;;;13.30;6.65;;;;;;;;;;5084190;28;20096;-51
2023/11/21 11:44:51;;;;;;;11.60;6.68;;;;;;;;;;5083113;28;20052;-47
2023/11/21 11:47:25;;;;;;;14.60;6.43;;;;;;;;;;5084820;28;20024;-49
2023/11/21 11:50:05;;;;;;;15.40;6.55;;;;;;;;;;5084170;28;20020;-49
2023/11/21 11:52:39;;;;;;;13.13;6.80;;;;;;;;;;5082895;28;20208;-49
2023/11/21 11:55:18;;;;;;;16.77;6.40;;;;;;;;;;5082931;28;20044;-50
2023/11/21 11:57:47;;;;;;;14.60;5.78;;;;;;;;;;5082732;28;20020;-49
2023/11/21 12:00:30;;;;;;;15.10;5.93;;;;;;;;;;5083100;28;20032;-50
2023/11/21 12:03:04;;;;;;;16.75;6.28;;;;;;;;;;5082578;28;20024;-55
2023/11/21 12:05:40;;;;;;;10.65;5.25;;;;;;;;;;5083726;28;20060;-52
2023/11/21 12:08:07;;;;;;;12.95;5.18;;;;;;;;;;5084558;28;20091;-54
2023/11/21 12:10:35;;;;;;;14.43;6.00;;;;;;;;;;5085141;28;20156;-47
2023/11/21 12:13:12;;;;;;;8.38;4.60;;;;;;;;;;5084667;28;20269;-47
2023/11/21 12:15:41;;;;;;;15.68;5.18;;;;;;;;;;5084452;28;20028;-53
2023/11/21 12:18:08;;;;;;;14.60;5.40;;;;;;;;;;5084198;28;20025;-47
2023/11/21 12:20:38;;;;;;;13.43;5.47;;;;;;;;;;5084534;28;20032;-50
2023/11/21 12:23:06;;;;;;;14.10;5.20;;;;;;;;;;5084257;28;20028;-50
2023/11/21 12:25:33;;;;;;;12.30;4.80;;;;;;;;;;5084667;28;20028;-49
2023/11/21 12:28:01;;;;;;;14.77;4.97;;;;;;;;;;5083881;28;20031;-51
2023/11/21 12:30:31;;;;;;;12.13;4.95;;;;;;;;;;5084633;28;20074;-53
2023/11/21 12:32:59;;;;;;;13.98;5.05;;;;;;;;;;5083959;28;20016;-50
2023/11/21 12:35:27;;;;;;;9.35;4.18;;;;;;;;;;5084660;28;20024;-50
2023/11/21 12:37:58;;;;;;;11.77;5.15;;;;;;;;;;5084331;28;20032;-51
2023/11/21 12:40:25;;;;;;;11.27;4.05;;;;;;;;;;5084291;28;20036;-46
2023/11/21 12:42:57;;;;;;;13.63;4.60;;;;;;;;;;5084227;28;20082;-48
2023/11/21 12:45:28;;;;;;;15.60;4.38;;;;;;;;;;5084489;28;20070;-47
2023/11/21 12:48:03;;;;;;;12.80;4.63;;;;;;;;;;5084064;28;20024;-50
2023/11/21 12:50:36;;;;;;;13.75;4.72;;;;;;;;;;5084450;28;20221;-49
2023/11/21 12:53:08;;;;;;;10.93;4.70;;;;;;;;;;5083971;28;20092;-48
2023/11/21 12:55:37;;;;;;;10.15;4.43;;;;;;;;;;5084453;28;20093;-48
2023/11/21 12:58:12;;;;;;;12.40;4.88;;;;;;;;;;5083857;28;20028;-48
2023/11/21 13:00:39;;;;;;;11.90;4.68;;;;;;;;;;5084384;28;20331;-51
2023/11/21 13:03:07;;;;;;;11.93;5.10;;;;;;;;;;5083883;28;20024;-51
2023/11/21 13:05:34;;;;;;;11.23;4.55;;;;;;;;;;5084355;28;20307;-51
2023/11/21 13:08:07;;;;;;;12.90;4.65;;;;;;;;;;5083778;28;20028;-47
2023/11/21 13:10:36;;;;;;;10.05;4.53;;;;;;;;;;5084259;28;20052;-49
2023/11/21 13:13:05;;;;;;;10.70;4.80;;;;;;;;;;5083785;28;20013;-47
2023/11/21 13:15:32;;;;;;;12.13;4.65;;;;;;;;;;5084089;28;20028;-46
2023/11/21 13:17:59;;;;;;;11.80;4.78;;;;;;;;;;5086170;28;20020;-44
2023/11/21 13:20:26;;;;;;;11.07;5.32;;;;;;;;;;5088109;28;20035;-47
2023/11/21 13:22:54;;;;;;;11.82;4.93;;;;;;;;;;5087553;28;20035;-47
2023/11/21 13:25:22;;;;;;;10.48;4.75;;;;;;;;;;5087875;28;20285;-45
2023/11/21 13:27:51;;;;;;;12.88;4.95;;;;;;;;;;5087177;28;20032;-51
2023/11/21 13:30:23;;;;;;;11.23;4.85;;;;;;;;;;5087792;28;20028;-50
2023/11/21 13:32:51;;;;;;;12.93;4.68;;;;;;;;;;5087474;28;20304;-48
2023/11/21 13:35:20;;;;;;;12.27;5.00;;;;;;;;;;5087469;28;20308;-51
2023/11/21 13:37:48;;;;;;;15.85;5.28;;;;;;;;;;5087285;28;20032;-48
2023/11/21 13:40:22;;;;;;;14.77;5.00;;;;;;;;;;5087475;28;20043;-48
2023/11/21 13:42:53;;;;;;;12.55;5.20;;;;;;;;;;5087135;28;20044;-49
2023/11/21 13:45:22;;;;;;;14.45;5.40;;;;;;;;;;5087193;28;20083;-50
2023/11/21 13:47:51;;;;;;;9.93;5.05;;;;;;;;;;5086876;28;20033;-47
2023/11/21 13:50:27;;;;;;;11.25;5.70;;;;;;;;;;5087417;28;20323;-54
2023/11/21 13:52:54;;;;;;;15.20;5.75;;;;;;;;;;5087019;28;20020;-48
2023/11/21 13:55:24;;;;;;;13.70;5.93;;;;;;;;;;5087234;28;20186;-49
2023/11/21 13:57:51;;;;;;;9.70;5.55;;;;;;;;;;5086969;28;20098;-50
2023/11/21 14:03:08;;;;;;;12.52;6.88;;;;;;;;;;5086958;28;20263;-47
2023/11/21 14:05:36;;;;;;;15.40;7.38;;;;;;;;;;5087492;28;20028;-46
2023/11/21 14:08:04;;;;;;;17.98;6.55;;;;;;;;;;5087076;28;20031;-51
2023/11/21 14:10:43;;;;;;;13.82;7.03;;;;;;;;;;5087492;28;20044;-46
2023/11/21 14:13:10;;;;;;;13.55;6.53;;;;;;;;;;5086920;28;20024;-49
2023/11/21 14:15:41;;;;;;;15.13;6.40;;;;;;;;;;5087110;28;20020;-52
2023/11/21 14:18:10;;;;;;;9.70;6.20;;;;;;;;;;5086646;28;20309;-46
2023/11/21 14:20:41;;;;;;;13.48;6.90;;;;;;;;;;5087071;28;20227;-49
2023/11/21 14:23:08;;;;;;;13.23;6.60;;;;;;;;;;5086459;28;20055;-50
2023/11/21 14:25:36;;;;;;;16.85;6.60;;;;;;;;;;5086888;28;20250;-48
2023/11/21 14:28:06;;;;;;;13.40;6.40;;;;;;;;;;5086323;28;20070;-47
2023/11/21 14:30:35;;;;;;;11.00;6.00;;;;;;;;;;5086788;28;20028;-51
2023/11/21 14:33:03;;;;;;;12.73;6.20;;;;;;;;;;5086217;28;20035;-45
2023/11/21 14:35:32;;;;;;;16.30;6.25;;;;;;;;;;5086981;28;20208;-46
2023/11/21 14:38:00;;;;;;;10.68;5.38;;;;;;;;;;5086380;28;20025;-49
2023/11/21 14:40:32;;;;;;;12.27;5.55;;;;;;;;;;5086381;28;20051;-48
2023/11/21 14:43:09;;;;;;;11.43;5.53;;;;;;;;;;5085885;28;20035;-45
2023/11/21 14:45:36;;;;;;;14.82;5.68;;;;;;;;;;5085721;28;20294;-47
2023/11/21 14:51:06;;;;;;;11.93;5.28;;;;;;;;;;5086435;28;20020;-47
2023/11/21 14:53:42;;;;;;;10.18;5.03;;;;;;;;;;5085564;28;20337;-47
2023/11/21 14:56:21;;;;;;;11.50;5.47;;;;;;;;;;5085598;28;20024;-48